sensor_id;sensor_type;location;lat;lon;timestamp;temperature;humidity
23681;DHT22;62915;50.832;4.462;2023-01-19T00:01:18;3.70;99.90
23681;DHT22;62915;50.832;4.462;2023-01-19T00:03:44;3.70;99.90
23681;DHT22;62915;50.832;4.462;2023-01-19T00:06:10;3.70;99.90
23681;DHT22;62915;50.832;4.462;2023-01-19T00:08:36;3.70;99.90
23681;DHT22;62915;50.832;4.462;2023-01-19T00:11:04;3.70;99.90
23681;DHT22;62915;50.832;4.462;2023-01-19T00:13:30;3.50;99.90
23681;DHT22;62915;50.832;4.462;2023-01-19T00:15:56;3.50;99.90
23681;DHT22;62915;50.832;4.462;2023-01-19T00:18:21;3.60;99.90
23681;DHT22;62915;50.832;4.462;2023-01-19T00:20:49;3.70;99.90
23681;DHT22;62915;50.832;4.462;2023-01-19T00:23:15;3.60;99.90
23681;DHT22;62915;50.832;4.462;2023-01-19T00:25:41;3.60;99.90
23681;DHT22;62915;50.832;4.462;2023-01-19T00:28:12;3.50;99.90
23681;DHT22;62915;50.832;4.462;2023-01-19T00:30:38;3.50;99.90
23681;DHT22;62915;50.832;4.462;2023-01-19T00:33:04;3.50;99.90
23681;DHT22;62915;50.832;4.462;2023-01-19T00:35:30;3.50;99.90
23681;DHT22;62915;50.832;4.462;2023-01-19T00:37:57;3.50;99.90
23681;DHT22;62915;50.832;4.462;2023-01-19T00:40:23;3.50;99.90
23681;DHT22;62915;50.832;4.462;2023-01-19T00:42:49;3.50;99.90
23681;DHT22;62915;50.832;4.462;2023-01-19T00:45:17;3.50;99.90
23681;DHT22;62915;50.832;4.462;2023-01-19T00:47:45;3.60;99.90
23681;DHT22;62915;50.832;4.462;2023-01-19T00:50:12;3.50;99.90
23681;DHT22;62915;50.832;4.462;2023-01-19T00:52:39;3.70;99.90
23681;DHT22;62915;50.832;4.462;2023-01-19T00:55:10;3.60;99.90
23681;DHT22;62915;50.832;4.462;2023-01-19T00:57:38;3.70;99.90
23681;DHT22;62915;50.832;4.462;2023-01-19T01:00:06;3.70;99.90
23681;DHT22;62915;50.832;4.462;2023-01-19T01:02:33;3.60;99.90
23681;DHT22;62915;50.832;4.462;2023-01-19T01:04:59;3.50;99.90
23681;DHT22;62915;50.832;4.462;2023-01-19T01:07:28;3.50;99.90
23681;DHT22;62915;50.832;4.462;2023-01-19T01:09:54;3.70;99.90
23681;DHT22;62915;50.832;4.462;2023-01-19T01:12:22;3.60;99.90
23681;DHT22;62915;50.832;4.462;2023-01-19T01:14:47;3.60;99.90
23681;DHT22;62915;50.832;4.462;2023-01-19T01:17:13;3.50;99.90
23681;DHT22;62915;50.832;4.462;2023-01-19T01:19:40;3.50;99.90
23681;DHT22;62915;50.832;4.462;2023-01-19T01:22:07;3.40;99.90
23681;DHT22;62915;50.832;4.462;2023-01-19T01:24:33;3.50;99.90
23681;DHT22;62915;50.832;4.462;2023-01-19T01:26:58;3.30;99.90
23681;DHT22;62915;50.832;4.462;2023-01-19T01:29:27;3.20;99.90
23681;DHT22;62915;50.832;4.462;2023-01-19T01:31:53;3.40;99.90
23681;DHT22;62915;50.832;4.462;2023-01-19T01:34:19;3.30;99.90
23681;DHT22;62915;50.832;4.462;2023-01-19T01:36:44;3.30;99.90
23681;DHT22;62915;50.832;4.462;2023-01-19T01:39:10;3.30;99.90
23681;DHT22;62915;50.832;4.462;2023-01-19T01:41:35;3.40;99.90
23681;DHT22;62915;50.832;4.462;2023-01-19T01:44:01;3.40;99.90
23681;DHT22;62915;50.832;4.462;2023-01-19T01:46:30;3.30;99.90
23681;DHT22;62915;50.832;4.462;2023-01-19T01:49:09;3.20;99.90
23681;DHT22;62915;50.832;4.462;2023-01-19T01:51:44;3.30;99.90
23681;DHT22;62915;50.832;4.462;2023-01-19T01:54:16;3.20;99.90
23681;DHT22;62915;50.832;4.462;2023-01-19T01:56:49;3.10;99.90
23681;DHT22;62915;50.832;4.462;2023-01-19T01:59:20;3.10;99.90
23681;DHT22;62915;50.832;4.462;2023-01-19T02:01:58;3.20;99.90
23681;DHT22;62915;50.832;4.462;2023-01-19T02:04:55;3.40;99.90
23681;DHT22;62915;50.832;4.462;2023-01-19T02:07:37;3.30;99.90
23681;DHT22;62915;50.832;4.462;2023-01-19T02:10:24;3.20;99.90
23681;DHT22;62915;50.832;4.462;2023-01-19T02:13:09;3.20;99.90
23681;DHT22;62915;50.832;4.462;2023-01-19T02:15:56;3.10;99.90
23681;DHT22;62915;50.832;4.462;2023-01-19T02:18:25;3.10;99.90
23681;DHT22;62915;50.832;4.462;2023-01-19T02:23:50;3.00;99.90
23681;DHT22;62915;50.832;4.462;2023-01-19T02:26:33;2.90;99.90
23681;DHT22;62915;50.832;4.462;2023-01-19T02:29:03;3.10;99.90
23681;DHT22;62915;50.832;4.462;2023-01-19T02:31:30;3.00;99.90
23681;DHT22;62915;50.832;4.462;2023-01-19T02:33:59;3.00;99.90
23681;DHT22;62915;50.832;4.462;2023-01-19T02:39:01;2.90;99.90
23681;DHT22;62915;50.832;4.462;2023-01-19T02:41:32;3.00;99.90
23681;DHT22;62915;50.832;4.462;2023-01-19T02:44:00;2.90;99.90
23681;DHT22;62915;50.832;4.462;2023-01-19T02:46:26;3.00;99.90
23681;DHT22;62915;50.832;4.462;2023-01-19T02:48:51;3.00;99.90
23681;DHT22;62915;50.832;4.462;2023-01-19T02:51:22;3.00;99.90
23681;DHT22;62915;50.832;4.462;2023-01-19T02:57:30;3.10;99.90
23681;DHT22;62915;50.832;4.462;2023-01-19T03:02:33;3.00;99.90
23681;DHT22;62915;50.832;4.462;2023-01-19T03:11:08;3.10;99.90
23681;DHT22;62915;50.832;4.462;2023-01-19T03:16:19;3.20;99.90
23681;DHT22;62915;50.832;4.462;2023-01-19T03:18:51;3.20;99.90
23681;DHT22;62915;50.832;4.462;2023-01-19T03:21:21;3.20;99.90
23681;DHT22;62915;50.832;4.462;2023-01-19T03:23:49;3.20;99.90
23681;DHT22;62915;50.832;4.462;2023-01-19T03:26:19;3.20;99.90
23681;DHT22;62915;50.832;4.462;2023-01-19T03:28:46;3.10;99.90
23681;DHT22;62915;50.832;4.462;2023-01-19T03:31:20;3.30;99.90
23681;DHT22;62915;50.832;4.462;2023-01-19T03:33:48;3.40;99.90
23681;DHT22;62915;50.832;4.462;2023-01-19T03:36:20;3.30;99.90
23681;DHT22;62915;50.832;4.462;2023-01-19T03:38:52;3.20;99.90
23681;DHT22;62915;50.832;4.462;2023-01-19T03:41:21;3.10;99.90
23681;DHT22;62915;50.832;4.462;2023-01-19T03:43:48;3.20;99.90
23681;DHT22;62915;50.832;4.462;2023-01-19T03:46:16;3.30;99.90
23681;DHT22;62915;50.832;4.462;2023-01-19T03:48:44;3.30;99.90
23681;DHT22;62915;50.832;4.462;2023-01-19T03:51:11;3.30;99.90
23681;DHT22;62915;50.832;4.462;2023-01-19T03:53:39;3.30;99.90
23681;DHT22;62915;50.832;4.462;2023-01-19T03:56:05;3.30;99.90
23681;DHT22;62915;50.832;4.462;2023-01-19T03:58:31;3.40;99.90
23681;DHT22;62915;50.832;4.462;2023-01-19T04:00:57;3.30;99.90
23681;DHT22;62915;50.832;4.462;2023-01-19T04:03:23;3.40;99.90
23681;DHT22;62915;50.832;4.462;2023-01-19T04:05:49;3.50;99.90
23681;DHT22;62915;50.832;4.462;2023-01-19T04:08:15;3.40;99.90
23681;DHT22;62915;50.832;4.462;2023-01-19T04:10:40;3.40;99.90
23681;DHT22;62915;50.832;4.462;2023-01-19T04:13:06;3.40;99.90
23681;DHT22;62915;50.832;4.462;2023-01-19T04:15:32;3.30;99.90
23681;DHT22;62915;50.832;4.462;2023-01-19T04:17:59;3.30;99.90
23681;DHT22;62915;50.832;4.462;2023-01-19T04:20:26;3.40;99.90
23681;DHT22;62915;50.832;4.462;2023-01-19T04:22:53;3.40;99.90
23681;DHT22;62915;50.832;4.462;2023-01-19T04:25:19;3.50;99.90
23681;DHT22;62915;50.832;4.462;2023-01-19T04:27:45;3.40;99.90
23681;DHT22;62915;50.832;4.462;2023-01-19T04:30:11;3.30;99.90
23681;DHT22;62915;50.832;4.462;2023-01-19T04:32:37;3.20;99.90
23681;DHT22;62915;50.832;4.462;2023-01-19T04:35:03;3.20;99.90
23681;DHT22;62915;50.832;4.462;2023-01-19T04:37:29;3.20;99.90
23681;DHT22;62915;50.832;4.462;2023-01-19T04:39:54;3.20;99.90
23681;DHT22;62915;50.832;4.462;2023-01-19T04:42:20;3.00;99.90
23681;DHT22;62915;50.832;4.462;2023-01-19T04:44:49;3.10;99.90
23681;DHT22;62915;50.832;4.462;2023-01-19T04:47:14;3.00;99.90
23681;DHT22;62915;50.832;4.462;2023-01-19T04:49:41;3.00;99.90
23681;DHT22;62915;50.832;4.462;2023-01-19T04:52:08;3.00;99.90
23681;DHT22;62915;50.832;4.462;2023-01-19T04:54:33;2.90;99.90
23681;DHT22;62915;50.832;4.462;2023-01-19T04:56:59;3.10;99.90
23681;DHT22;62915;50.832;4.462;2023-01-19T04:59:25;3.20;99.90
23681;DHT22;62915;50.832;4.462;2023-01-19T05:01:50;3.10;99.90
23681;DHT22;62915;50.832;4.462;2023-01-19T05:04:16;3.10;99.90
23681;DHT22;62915;50.832;4.462;2023-01-19T05:06:42;3.10;99.90
23681;DHT22;62915;50.832;4.462;2023-01-19T05:09:07;2.90;99.90
23681;DHT22;62915;50.832;4.462;2023-01-19T05:11:36;2.90;99.90
23681;DHT22;62915;50.832;4.462;2023-01-19T05:14:02;3.00;99.90
23681;DHT22;62915;50.832;4.462;2023-01-19T05:16:28;2.90;99.90
23681;DHT22;62915;50.832;4.462;2023-01-19T05:18:53;2.80;99.90
23681;DHT22;62915;50.832;4.462;2023-01-19T05:21:19;2.80;99.90
23681;DHT22;62915;50.832;4.462;2023-01-19T05:23:45;2.90;99.90
23681;DHT22;62915;50.832;4.462;2023-01-19T05:26:10;3.10;99.90
23681;DHT22;62915;50.832;4.462;2023-01-19T05:28:36;3.00;99.90
23681;DHT22;62915;50.832;4.462;2023-01-19T05:31:02;3.00;99.90
23681;DHT22;62915;50.832;4.462;2023-01-19T05:33:28;3.00;99.90
23681;DHT22;62915;50.832;4.462;2023-01-19T05:35:54;3.10;99.90
23681;DHT22;62915;50.832;4.462;2023-01-19T05:38:21;2.80;99.90
23681;DHT22;62915;50.832;4.462;2023-01-19T05:40:46;2.70;99.90
23681;DHT22;62915;50.832;4.462;2023-01-19T05:43:13;2.80;99.90
23681;DHT22;62915;50.832;4.462;2023-01-19T05:45:39;2.70;99.90
23681;DHT22;62915;50.832;4.462;2023-01-19T05:48:09;2.70;99.90
23681;DHT22;62915;50.832;4.462;2023-01-19T05:50:35;2.60;99.90
23681;DHT22;62915;50.832;4.462;2023-01-19T05:53:01;2.70;99.90
23681;DHT22;62915;50.832;4.462;2023-01-19T05:55:28;2.80;99.90
23681;DHT22;62915;50.832;4.462;2023-01-19T05:57:54;2.90;99.90
23681;DHT22;62915;50.832;4.462;2023-01-19T06:00:20;2.90;99.90
23681;DHT22;62915;50.832;4.462;2023-01-19T06:02:46;2.90;99.90
23681;DHT22;62915;50.832;4.462;2023-01-19T06:05:14;2.90;99.90
23681;DHT22;62915;50.832;4.462;2023-01-19T06:07:39;2.90;99.90
23681;DHT22;62915;50.832;4.462;2023-01-19T06:10:06;3.00;99.90
23681;DHT22;62915;50.832;4.462;2023-01-19T06:12:32;3.10;99.90
23681;DHT22;62915;50.832;4.462;2023-01-19T06:14:58;3.00;99.90
23681;DHT22;62915;50.832;4.462;2023-01-19T06:17:23;3.00;99.90
23681;DHT22;62915;50.832;4.462;2023-01-19T06:19:49;2.90;99.90
23681;DHT22;62915;50.832;4.462;2023-01-19T06:22:15;2.90;99.90
23681;DHT22;62915;50.832;4.462;2023-01-19T06:24:40;3.00;99.90
23681;DHT22;62915;50.832;4.462;2023-01-19T06:27:06;3.00;99.90
23681;DHT22;62915;50.832;4.462;2023-01-19T06:29:32;3.00;99.90
23681;DHT22;62915;50.832;4.462;2023-01-19T06:31:58;2.90;99.90
23681;DHT22;62915;50.832;4.462;2023-01-19T06:34:23;2.80;99.90
23681;DHT22;62915;50.832;4.462;2023-01-19T06:36:54;2.80;99.90
23681;DHT22;62915;50.832;4.462;2023-01-19T06:39:20;2.80;99.90
23681;DHT22;62915;50.832;4.462;2023-01-19T06:41:46;2.90;99.90
23681;DHT22;62915;50.832;4.462;2023-01-19T06:44:12;2.80;99.90
23681;DHT22;62915;50.832;4.462;2023-01-19T06:46:38;2.80;99.90
23681;DHT22;62915;50.832;4.462;2023-01-19T06:49:04;2.90;99.90
23681;DHT22;62915;50.832;4.462;2023-01-19T06:51:30;2.90;99.90
23681;DHT22;62915;50.832;4.462;2023-01-19T06:53:56;3.00;99.90
23681;DHT22;62915;50.832;4.462;2023-01-19T06:56:22;3.00;99.90
23681;DHT22;62915;50.832;4.462;2023-01-19T06:58:48;2.90;99.90
23681;DHT22;62915;50.832;4.462;2023-01-19T07:01:15;2.90;99.90
23681;DHT22;62915;50.832;4.462;2023-01-19T07:03:41;3.00;99.90
23681;DHT22;62915;50.832;4.462;2023-01-19T07:06:07;3.10;99.90
23681;DHT22;62915;50.832;4.462;2023-01-19T07:08:34;3.00;99.90
23681;DHT22;62915;50.832;4.462;2023-01-19T07:11:06;3.00;99.90
23681;DHT22;62915;50.832;4.462;2023-01-19T07:13:33;3.00;99.90
23681;DHT22;62915;50.832;4.462;2023-01-19T07:16:07;3.10;99.90
23681;DHT22;62915;50.832;4.462;2023-01-19T07:18:34;3.10;99.90
23681;DHT22;62915;50.832;4.462;2023-01-19T07:21:00;3.30;99.90
23681;DHT22;62915;50.832;4.462;2023-01-19T07:23:26;3.10;99.90
23681;DHT22;62915;50.832;4.462;2023-01-19T07:25:55;3.10;99.90
23681;DHT22;62915;50.832;4.462;2023-01-19T07:28:21;3.00;99.90
23681;DHT22;62915;50.832;4.462;2023-01-19T07:30:50;3.10;99.90
23681;DHT22;62915;50.832;4.462;2023-01-19T07:33:16;3.00;99.90
23681;DHT22;62915;50.832;4.462;2023-01-19T07:35:49;3.00;99.90
23681;DHT22;62915;50.832;4.462;2023-01-19T07:38:15;3.10;99.90
23681;DHT22;62915;50.832;4.462;2023-01-19T07:40:42;3.00;99.90
23681;DHT22;62915;50.832;4.462;2023-01-19T07:43:08;3.00;99.90
23681;DHT22;62915;50.832;4.462;2023-01-19T07:45:34;3.20;99.90
23681;DHT22;62915;50.832;4.462;2023-01-19T07:48:00;3.10;99.90
23681;DHT22;62915;50.832;4.462;2023-01-19T07:50:26;3.00;99.90
23681;DHT22;62915;50.832;4.462;2023-01-19T07:52:54;3.10;99.90
23681;DHT22;62915;50.832;4.462;2023-01-19T07:55:20;3.20;99.90
23681;DHT22;62915;50.832;4.462;2023-01-19T07:57:50;3.10;99.90
23681;DHT22;62915;50.832;4.462;2023-01-19T08:00:19;3.00;99.90
23681;DHT22;62915;50.832;4.462;2023-01-19T08:02:49;3.00;99.90
23681;DHT22;62915;50.832;4.462;2023-01-19T08:05:17;3.00;99.90
23681;DHT22;62915;50.832;4.462;2023-01-19T08:07:43;3.00;99.90
23681;DHT22;62915;50.832;4.462;2023-01-19T08:10:11;3.00;99.90
23681;DHT22;62915;50.832;4.462;2023-01-19T08:12:37;3.10;99.90
23681;DHT22;62915;50.832;4.462;2023-01-19T08:15:03;3.10;99.90
23681;DHT22;62915;50.832;4.462;2023-01-19T08:17:29;3.10;99.90
23681;DHT22;62915;50.832;4.462;2023-01-19T08:19:55;3.20;99.90
23681;DHT22;62915;50.832;4.462;2023-01-19T08:22:21;3.20;99.90
23681;DHT22;62915;50.832;4.462;2023-01-19T08:24:47;3.30;99.90
23681;DHT22;62915;50.832;4.462;2023-01-19T08:27:13;3.40;99.90
23681;DHT22;62915;50.832;4.462;2023-01-19T08:29:39;3.40;99.90
23681;DHT22;62915;50.832;4.462;2023-01-19T08:32:05;3.40;99.90
23681;DHT22;62915;50.832;4.462;2023-01-19T08:34:31;3.40;99.90
23681;DHT22;62915;50.832;4.462;2023-01-19T08:36:57;3.40;99.90
23681;DHT22;62915;50.832;4.462;2023-01-19T08:39:23;3.50;99.90
23681;DHT22;62915;50.832;4.462;2023-01-19T08:41:50;3.50;99.90
23681;DHT22;62915;50.832;4.462;2023-01-19T08:44:16;3.40;99.90
23681;DHT22;62915;50.832;4.462;2023-01-19T08:46:41;3.50;99.90
23681;DHT22;62915;50.832;4.462;2023-01-19T08:49:07;3.40;99.90
23681;DHT22;62915;50.832;4.462;2023-01-19T08:51:33;3.40;99.90
23681;DHT22;62915;50.832;4.462;2023-01-19T08:53:59;3.50;99.90
23681;DHT22;62915;50.832;4.462;2023-01-19T08:56:25;3.30;99.90
23681;DHT22;62915;50.832;4.462;2023-01-19T08:58:50;3.40;99.90
23681;DHT22;62915;50.832;4.462;2023-01-19T09:01:16;3.30;99.90
23681;DHT22;62915;50.832;4.462;2023-01-19T09:03:44;3.20;99.90
23681;DHT22;62915;50.832;4.462;2023-01-19T09:06:12;3.30;99.90
23681;DHT22;62915;50.832;4.462;2023-01-19T09:08:39;3.20;99.90
23681;DHT22;62915;50.832;4.462;2023-01-19T09:11:09;3.30;99.90
23681;DHT22;62915;50.832;4.462;2023-01-19T09:13:36;3.30;99.90
23681;DHT22;62915;50.832;4.462;2023-01-19T09:16:02;3.20;99.90
23681;DHT22;62915;50.832;4.462;2023-01-19T09:18:28;3.20;99.90
23681;DHT22;62915;50.832;4.462;2023-01-19T09:20:56;3.10;99.90
23681;DHT22;62915;50.832;4.462;2023-01-19T09:23:22;3.10;99.90
23681;DHT22;62915;50.832;4.462;2023-01-19T09:25:56;3.20;99.90
23681;DHT22;62915;50.832;4.462;2023-01-19T09:28:22;3.10;99.90
23681;DHT22;62915;50.832;4.462;2023-01-19T09:30:48;3.20;99.90
23681;DHT22;62915;50.832;4.462;2023-01-19T09:33:16;3.20;99.90
23681;DHT22;62915;50.832;4.462;2023-01-19T09:35:43;3.40;99.90
23681;DHT22;62915;50.832;4.462;2023-01-19T09:38:10;3.30;99.90
23681;DHT22;62915;50.832;4.462;2023-01-19T09:45:56;3.60;99.90
23681;DHT22;62915;50.832;4.462;2023-01-19T09:48:47;3.50;99.90
23681;DHT22;62915;50.832;4.462;2023-01-19T09:54:00;3.70;99.90
23681;DHT22;62915;50.832;4.462;2023-01-19T09:56:28;3.70;99.90
23681;DHT22;62915;50.832;4.462;2023-01-19T09:58:54;3.50;99.90
23681;DHT22;62915;50.832;4.462;2023-01-19T10:01:42;3.50;99.90
23681;DHT22;62915;50.832;4.462;2023-01-19T10:06:46;3.50;99.90
23681;DHT22;62915;50.832;4.462;2023-01-19T10:26:33;3.30;99.90
23681;DHT22;62915;50.832;4.462;2023-01-19T10:29:07;3.30;99.90
23681;DHT22;62915;50.832;4.462;2023-01-19T10:31:34;3.40;99.90
23681;DHT22;62915;50.832;4.462;2023-01-19T10:34:02;3.50;99.90
23681;DHT22;62915;50.832;4.462;2023-01-19T10:36:37;3.40;99.90
23681;DHT22;62915;50.832;4.462;2023-01-19T10:39:05;3.50;99.90
23681;DHT22;62915;50.832;4.462;2023-01-19T10:41:48;3.40;99.90
23681;DHT22;62915;50.832;4.462;2023-01-19T10:44:23;3.20;99.90
23681;DHT22;62915;50.832;4.462;2023-01-19T10:46:50;3.30;99.90
23681;DHT22;62915;50.832;4.462;2023-01-19T10:49:37;3.30;99.90
23681;DHT22;62915;50.832;4.462;2023-01-19T10:52:05;3.30;99.90
23681;DHT22;62915;50.832;4.462;2023-01-19T10:54:33;3.40;99.90
23681;DHT22;62915;50.832;4.462;2023-01-19T10:57:04;3.70;99.90
23681;DHT22;62915;50.832;4.462;2023-01-19T11:02:28;3.60;99.90
23681;DHT22;62915;50.832;4.462;2023-01-19T11:04:57;3.60;99.90
23681;DHT22;62915;50.832;4.462;2023-01-19T11:07:30;3.70;99.90
23681;DHT22;62915;50.832;4.462;2023-01-19T11:13:09;3.70;99.90
23681;DHT22;62915;50.832;4.462;2023-01-19T11:15:54;3.70;99.90
23681;DHT22;62915;50.832;4.462;2023-01-19T11:20:55;3.70;99.90
23681;DHT22;62915;50.832;4.462;2023-01-19T11:23:31;3.60;99.90
23681;DHT22;62915;50.832;4.462;2023-01-19T11:26:01;3.60;99.90
23681;DHT22;62915;50.832;4.462;2023-01-19T11:28:39;3.60;99.90
23681;DHT22;62915;50.832;4.462;2023-01-19T11:36:21;3.80;99.90
23681;DHT22;62915;50.832;4.462;2023-01-19T11:38:49;3.80;99.90
23681;DHT22;62915;50.832;4.462;2023-01-19T11:41:21;3.70;99.90
23681;DHT22;62915;50.832;4.462;2023-01-19T11:43:50;3.80;99.90
23681;DHT22;62915;50.832;4.462;2023-01-19T11:46:17;3.70;99.90
23681;DHT22;62915;50.832;4.462;2023-01-19T11:48:55;3.80;99.90
23681;DHT22;62915;50.832;4.462;2023-01-19T11:51:47;3.90;99.90
23681;DHT22;62915;50.832;4.462;2023-01-19T11:54:24;3.80;99.90
23681;DHT22;62915;50.832;4.462;2023-01-19T11:56:55;3.80;99.90
23681;DHT22;62915;50.832;4.462;2023-01-19T11:59:22;4.00;99.90
23681;DHT22;62915;50.832;4.462;2023-01-19T12:01:55;4.20;99.90
23681;DHT22;62915;50.832;4.462;2023-01-19T12:04:30;4.20;99.90
23681;DHT22;62915;50.832;4.462;2023-01-19T12:07:02;4.10;99.90
23681;DHT22;62915;50.832;4.462;2023-01-19T12:09:45;4.00;99.90
23681;DHT22;62915;50.832;4.462;2023-01-19T12:12:32;4.10;99.90
23681;DHT22;62915;50.832;4.462;2023-01-19T12:17:52;4.10;99.90
23681;DHT22;62915;50.832;4.462;2023-01-19T12:20:29;4.10;99.90
23681;DHT22;62915;50.832;4.462;2023-01-19T12:28:11;4.20;99.90
23681;DHT22;62915;50.832;4.462;2023-01-19T12:30:38;4.30;99.90
23681;DHT22;62915;50.832;4.462;2023-01-19T12:41:30;4.50;99.90
23681;DHT22;62915;50.832;4.462;2023-01-19T12:49:25;4.70;99.90
23681;DHT22;62915;50.832;4.462;2023-01-19T12:52:08;4.70;99.90
23681;DHT22;62915;50.832;4.462;2023-01-19T12:54:35;4.50;99.90
23681;DHT22;62915;50.832;4.462;2023-01-19T12:57:07;4.60;99.90
23681;DHT22;62915;50.832;4.462;2023-01-19T12:59:36;4.60;99.90
23681;DHT22;62915;50.832;4.462;2023-01-19T13:13:22;5.00;99.90
23681;DHT22;62915;50.832;4.462;2023-01-19T13:15:49;5.00;99.90
23681;DHT22;62915;50.832;4.462;2023-01-19T13:18:28;4.90;99.90
23681;DHT22;62915;50.832;4.462;2023-01-19T13:21:04;4.90;99.90
23681;DHT22;62915;50.832;4.462;2023-01-19T13:26:17;4.90;99.90
23681;DHT22;62915;50.832;4.462;2023-01-19T13:28:47;5.10;99.90
23681;DHT22;62915;50.832;4.462;2023-01-19T13:31:14;5.00;99.90
23681;DHT22;62915;50.832;4.462;2023-01-19T13:33:51;5.00;99.90
23681;DHT22;62915;50.832;4.462;2023-01-19T13:36:44;4.90;99.90
23681;DHT22;62915;50.832;4.462;2023-01-19T13:39:33;5.00;99.90
23681;DHT22;62915;50.832;4.462;2023-01-19T13:42:14;5.10;99.90
23681;DHT22;62915;50.832;4.462;2023-01-19T13:44:46;5.20;99.90
23681;DHT22;62915;50.832;4.462;2023-01-19T13:47:31;5.20;99.90
23681;DHT22;62915;50.832;4.462;2023-01-19T13:50:01;5.20;99.90
23681;DHT22;62915;50.832;4.462;2023-01-19T13:52:28;5.20;99.90
23681;DHT22;62915;50.832;4.462;2023-01-19T13:54:56;5.00;99.90
23681;DHT22;62915;50.832;4.462;2023-01-19T13:57:43;5.10;99.90
23681;DHT22;62915;50.832;4.462;2023-01-19T14:10:34;5.00;99.90
23681;DHT22;62915;50.832;4.462;2023-01-19T14:13:02;5.00;99.90
23681;DHT22;62915;50.832;4.462;2023-01-19T14:15:30;5.00;99.90
23681;DHT22;62915;50.832;4.462;2023-01-19T14:20:50;5.30;99.90
23681;DHT22;62915;50.832;4.462;2023-01-19T14:23:36;5.30;99.90
23681;DHT22;62915;50.832;4.462;2023-01-19T14:26:02;5.20;99.90
23681;DHT22;62915;50.832;4.462;2023-01-19T14:28:31;5.10;99.90
23681;DHT22;62915;50.832;4.462;2023-01-19T14:33:43;5.30;99.90
23681;DHT22;62915;50.832;4.462;2023-01-19T14:38:46;5.20;99.90
23681;DHT22;62915;50.832;4.462;2023-01-19T14:43:55;5.30;99.90
23681;DHT22;62915;50.832;4.462;2023-01-19T14:46:22;5.40;99.90
23681;DHT22;62915;50.832;4.462;2023-01-19T14:48:50;5.30;99.90
23681;DHT22;62915;50.832;4.462;2023-01-19T14:51:22;5.20;99.90
23681;DHT22;62915;50.832;4.462;2023-01-19T14:53:56;5.20;99.90
23681;DHT22;62915;50.832;4.462;2023-01-19T14:56:29;5.20;99.90
23681;DHT22;62915;50.832;4.462;2023-01-19T14:58:58;5.20;99.90
23681;DHT22;62915;50.832;4.462;2023-01-19T15:01:24;5.00;99.90
23681;DHT22;62915;50.832;4.462;2023-01-19T15:03:53;5.10;99.90
23681;DHT22;62915;50.832;4.462;2023-01-19T15:06:23;5.10;99.90
23681;DHT22;62915;50.832;4.462;2023-01-19T15:08:50;5.20;99.90
23681;DHT22;62915;50.832;4.462;2023-01-19T15:11:32;5.10;99.90
23681;DHT22;62915;50.832;4.462;2023-01-19T15:13:59;5.00;99.90
23681;DHT22;62915;50.832;4.462;2023-01-19T15:16:26;5.00;99.90
23681;DHT22;62915;50.832;4.462;2023-01-19T15:18:53;5.00;99.90
23681;DHT22;62915;50.832;4.462;2023-01-19T15:21:20;5.00;99.90
23681;DHT22;62915;50.832;4.462;2023-01-19T15:23:53;5.00;99.90
23681;DHT22;62915;50.832;4.462;2023-01-19T15:26:21;5.00;99.90
23681;DHT22;62915;50.832;4.462;2023-01-19T15:28:48;5.00;99.90
23681;DHT22;62915;50.832;4.462;2023-01-19T15:31:15;5.00;99.90
23681;DHT22;62915;50.832;4.462;2023-01-19T15:33:42;5.00;99.90
23681;DHT22;62915;50.832;4.462;2023-01-19T15:36:12;5.00;99.90
23681;DHT22;62915;50.832;4.462;2023-01-19T15:38:38;4.90;99.90
23681;DHT22;62915;50.832;4.462;2023-01-19T15:43:37;5.00;99.90
23681;DHT22;62915;50.832;4.462;2023-01-19T15:46:04;4.90;99.90
23681;DHT22;62915;50.832;4.462;2023-01-19T15:48:30;4.90;99.90
23681;DHT22;62915;50.832;4.462;2023-01-19T15:50:56;4.70;99.90
23681;DHT22;62915;50.832;4.462;2023-01-19T15:53:22;4.80;99.90
23681;DHT22;62915;50.832;4.462;2023-01-19T15:55:51;4.60;99.90
23681;DHT22;62915;50.832;4.462;2023-01-19T15:58:17;4.60;99.90
23681;DHT22;62915;50.832;4.462;2023-01-19T16:00:45;4.70;99.90
23681;DHT22;62915;50.832;4.462;2023-01-19T16:03:16;4.80;99.90
23681;DHT22;62915;50.832;4.462;2023-01-19T16:05:42;4.80;99.90
23681;DHT22;62915;50.832;4.462;2023-01-19T16:08:09;4.70;99.90
23681;DHT22;62915;50.832;4.462;2023-01-19T16:10:35;4.80;99.90
23681;DHT22;62915;50.832;4.462;2023-01-19T16:13:00;4.80;99.90
23681;DHT22;62915;50.832;4.462;2023-01-19T16:15:26;4.70;99.90
23681;DHT22;62915;50.832;4.462;2023-01-19T16:17:51;4.80;99.90
23681;DHT22;62915;50.832;4.462;2023-01-19T16:20:17;4.80;99.90
23681;DHT22;62915;50.832;4.462;2023-01-19T16:22:43;4.80;99.90
23681;DHT22;62915;50.832;4.462;2023-01-19T16:25:10;4.70;99.90
23681;DHT22;62915;50.832;4.462;2023-01-19T16:27:35;4.60;99.90
23681;DHT22;62915;50.832;4.462;2023-01-19T16:30:01;4.70;99.90
23681;DHT22;62915;50.832;4.462;2023-01-19T16:32:33;4.60;99.90
23681;DHT22;62915;50.832;4.462;2023-01-19T16:34:59;4.60;99.90
23681;DHT22;62915;50.832;4.462;2023-01-19T16:37:25;4.60;99.90
23681;DHT22;62915;50.832;4.462;2023-01-19T16:39:51;4.50;99.90
23681;DHT22;62915;50.832;4.462;2023-01-19T16:42:16;4.50;99.90
23681;DHT22;62915;50.832;4.462;2023-01-19T16:44:42;4.40;99.90
23681;DHT22;62915;50.832;4.462;2023-01-19T16:47:08;4.40;99.90
23681;DHT22;62915;50.832;4.462;2023-01-19T16:49:34;4.40;99.90
23681;DHT22;62915;50.832;4.462;2023-01-19T16:52:00;4.40;99.90
23681;DHT22;62915;50.832;4.462;2023-01-19T16:54:26;4.40;99.90
23681;DHT22;62915;50.832;4.462;2023-01-19T16:56:54;4.40;99.90
23681;DHT22;62915;50.832;4.462;2023-01-19T16:59:20;4.40;99.90
23681;DHT22;62915;50.832;4.462;2023-01-19T17:01:48;4.40;99.90
23681;DHT22;62915;50.832;4.462;2023-01-19T17:04:18;4.40;99.90
23681;DHT22;62915;50.832;4.462;2023-01-19T17:06:45;4.40;99.90
23681;DHT22;62915;50.832;4.462;2023-01-19T17:09:26;4.40;99.90
23681;DHT22;62915;50.832;4.462;2023-01-19T17:11:52;4.50;99.90
23681;DHT22;62915;50.832;4.462;2023-01-19T17:14:19;4.50;99.90
23681;DHT22;62915;50.832;4.462;2023-01-19T17:16:45;4.40;99.90
23681;DHT22;62915;50.832;4.462;2023-01-19T17:19:18;4.20;99.90
23681;DHT22;62915;50.832;4.462;2023-01-19T17:21:46;4.10;99.90
23681;DHT22;62915;50.832;4.462;2023-01-19T17:24:13;4.10;99.90
23681;DHT22;62915;50.832;4.462;2023-01-19T17:26:40;4.00;99.90
23681;DHT22;62915;50.832;4.462;2023-01-19T17:29:08;4.10;99.90
23681;DHT22;62915;50.832;4.462;2023-01-19T17:31:34;4.10;99.90
23681;DHT22;62915;50.832;4.462;2023-01-19T17:34:02;4.20;99.90
23681;DHT22;62915;50.832;4.462;2023-01-19T17:36:34;4.10;99.90
23681;DHT22;62915;50.832;4.462;2023-01-19T17:39:04;4.20;99.90
23681;DHT22;62915;50.832;4.462;2023-01-19T17:41:32;4.20;99.90
23681;DHT22;62915;50.832;4.462;2023-01-19T17:44:00;4.20;99.90
23681;DHT22;62915;50.832;4.462;2023-01-19T17:46:27;4.20;99.90
23681;DHT22;62915;50.832;4.462;2023-01-19T17:48:55;4.20;99.90
23681;DHT22;62915;50.832;4.462;2023-01-19T17:51:21;4.00;99.90
23681;DHT22;62915;50.832;4.462;2023-01-19T17:53:48;3.90;99.90
23681;DHT22;62915;50.832;4.462;2023-01-19T17:56:16;4.00;99.90